sensor_id;sensor_type;location;lat;lon;timestamp;temperature;humidity
47520;DHT22;33252;48.122;11.538;2022-09-09T00:03:44;16.20;99.90
47520;DHT22;33252;48.122;11.538;2022-09-09T00:06:24;16.20;99.90
47520;DHT22;33252;48.122;11.538;2022-09-09T00:09:08;16.20;99.90
47520;DHT22;33252;48.122;11.538;2022-09-09T00:15:02;16.10;99.90
47520;DHT22;33252;48.122;11.538;2022-09-09T00:20:30;16.00;99.90
47520;DHT22;33252;48.122;11.538;2022-09-09T00:23:13;16.00;99.90
47520;DHT22;33252;48.122;11.538;2022-09-09T00:28:23;16.00;99.90
47520;DHT22;33252;48.122;11.538;2022-09-09T00:30:50;16.00;99.90
47520;DHT22;33252;48.122;11.538;2022-09-09T00:33:19;16.10;99.90
47520;DHT22;33252;48.122;11.538;2022-09-09T00:35:52;16.10;99.90
47520;DHT22;33252;48.122;11.538;2022-09-09T00:38:45;15.90;99.90
47520;DHT22;33252;48.122;11.538;2022-09-09T00:41:45;15.90;99.90
47520;DHT22;33252;48.122;11.538;2022-09-09T00:44:33;16.00;99.90
47520;DHT22;33252;48.122;11.538;2022-09-09T00:52:40;16.00;99.90
47520;DHT22;33252;48.122;11.538;2022-09-09T00:55:19;16.10;99.90
47520;DHT22;33252;48.122;11.538;2022-09-09T00:57:49;16.10;99.90
47520;DHT22;33252;48.122;11.538;2022-09-09T01:08:07;16.40;99.90
47520;DHT22;33252;48.122;11.538;2022-09-09T01:10:55;16.50;99.90
47520;DHT22;33252;48.122;11.538;2022-09-09T01:13:29;16.50;99.90
47520;DHT22;33252;48.122;11.538;2022-09-09T01:16:00;16.50;99.90
47520;DHT22;33252;48.122;11.538;2022-09-09T01:18:49;16.40;99.90
47520;DHT22;33252;48.122;11.538;2022-09-09T01:24:24;16.50;99.90
47520;DHT22;33252;48.122;11.538;2022-09-09T01:26:56;16.60;99.90
47520;DHT22;33252;48.122;11.538;2022-09-09T01:29:24;16.60;99.90
47520;DHT22;33252;48.122;11.538;2022-09-09T01:31:57;16.50;99.90
47520;DHT22;33252;48.122;11.538;2022-09-09T01:34:30;16.40;99.90
47520;DHT22;33252;48.122;11.538;2022-09-09T01:37:09;16.30;99.90
47520;DHT22;33252;48.122;11.538;2022-09-09T01:39:36;16.20;99.90
47520;DHT22;33252;48.122;11.538;2022-09-09T01:42:05;16.10;99.90
47520;DHT22;33252;48.122;11.538;2022-09-09T01:44:32;16.10;99.90
47520;DHT22;33252;48.122;11.538;2022-09-09T01:46:58;16.00;99.90
47520;DHT22;33252;48.122;11.538;2022-09-09T01:49:23;15.90;99.90
47520;DHT22;33252;48.122;11.538;2022-09-09T01:51:53;16.00;99.90
47520;DHT22;33252;48.122;11.538;2022-09-09T01:54:24;16.10;99.90
47520;DHT22;33252;48.122;11.538;2022-09-09T01:59:28;16.00;99.90
47520;DHT22;33252;48.122;11.538;2022-09-09T02:04:41;15.80;99.90
47520;DHT22;33252;48.122;11.538;2022-09-09T02:10:16;15.70;99.90
47520;DHT22;33252;48.122;11.538;2022-09-09T02:12:49;15.60;99.90
47520;DHT22;33252;48.122;11.538;2022-09-09T02:15:40;15.60;99.90
47520;DHT22;33252;48.122;11.538;2022-09-09T02:18:09;15.60;99.90
47520;DHT22;33252;48.122;11.538;2022-09-09T02:20:38;15.60;99.90
47520;DHT22;33252;48.122;11.538;2022-09-09T02:23:05;15.50;99.90
47520;DHT22;33252;48.122;11.538;2022-09-09T02:25:35;15.60;99.90
47520;DHT22;33252;48.122;11.538;2022-09-09T02:28:04;15.60;99.90
47520;DHT22;33252;48.122;11.538;2022-09-09T02:30:32;15.70;99.90
47520;DHT22;33252;48.122;11.538;2022-09-09T02:33:01;15.70;99.90
47520;DHT22;33252;48.122;11.538;2022-09-09T02:35:30;15.80;99.90
47520;DHT22;33252;48.122;11.538;2022-09-09T02:38:01;15.80;99.90
47520;DHT22;33252;48.122;11.538;2022-09-09T02:40:27;15.90;99.90
47520;DHT22;33252;48.122;11.538;2022-09-09T02:42:54;15.90;99.90
47520;DHT22;33252;48.122;11.538;2022-09-09T02:45:27;15.90;99.90
47520;DHT22;33252;48.122;11.538;2022-09-09T02:48:26;16.00;99.90
47520;DHT22;33252;48.122;11.538;2022-09-09T02:51:14;16.00;99.90
47520;DHT22;33252;48.122;11.538;2022-09-09T02:54:04;16.00;99.90
47520;DHT22;33252;48.122;11.538;2022-09-09T02:56:40;16.10;99.90
47520;DHT22;33252;48.122;11.538;2022-09-09T02:59:07;16.10;99.90
47520;DHT22;33252;48.122;11.538;2022-09-09T03:01:33;16.10;99.90
47520;DHT22;33252;48.122;11.538;2022-09-09T03:03:58;16.00;99.90
47520;DHT22;33252;48.122;11.538;2022-09-09T03:06:24;16.10;99.90
47520;DHT22;33252;48.122;11.538;2022-09-09T03:08:50;16.20;99.90
47520;DHT22;33252;48.122;11.538;2022-09-09T03:11:17;16.10;99.90
47520;DHT22;33252;48.122;11.538;2022-09-09T03:13:43;16.00;99.90
47520;DHT22;33252;48.122;11.538;2022-09-09T03:16:09;15.90;99.90
47520;DHT22;33252;48.122;11.538;2022-09-09T03:18:34;16.00;99.90
47520;DHT22;33252;48.122;11.538;2022-09-09T03:21:00;15.90;99.90
47520;DHT22;33252;48.122;11.538;2022-09-09T03:23:26;15.80;99.90
47520;DHT22;33252;48.122;11.538;2022-09-09T03:25:52;15.70;99.90
47520;DHT22;33252;48.122;11.538;2022-09-09T03:28:20;15.90;99.90
47520;DHT22;33252;48.122;11.538;2022-09-09T03:30:46;15.80;99.90
47520;DHT22;33252;48.122;11.538;2022-09-09T03:33:11;15.70;99.90
47520;DHT22;33252;48.122;11.538;2022-09-09T03:35:38;15.70;99.90
47520;DHT22;33252;48.122;11.538;2022-09-09T03:38:04;15.60;99.90
47520;DHT22;33252;48.122;11.538;2022-09-09T03:40:30;15.60;99.90
47520;DHT22;33252;48.122;11.538;2022-09-09T03:42:56;15.70;99.90
47520;DHT22;33252;48.122;11.538;2022-09-09T03:45:22;15.70;99.90
47520;DHT22;33252;48.122;11.538;2022-09-09T03:47:47;15.60;99.90
47520;DHT22;33252;48.122;11.538;2022-09-09T03:50:13;15.70;99.90
47520;DHT22;33252;48.122;11.538;2022-09-09T03:52:40;15.70;99.90
47520;DHT22;33252;48.122;11.538;2022-09-09T03:55:07;15.60;99.90
47520;DHT22;33252;48.122;11.538;2022-09-09T03:57:33;15.50;99.90
47520;DHT22;33252;48.122;11.538;2022-09-09T04:00:04;15.50;99.90
47520;DHT22;33252;48.122;11.538;2022-09-09T04:02:30;15.60;99.90
47520;DHT22;33252;48.122;11.538;2022-09-09T04:04:56;15.70;99.90
47520;DHT22;33252;48.122;11.538;2022-09-09T04:07:22;15.70;99.90
47520;DHT22;33252;48.122;11.538;2022-09-09T04:09:48;15.80;99.90
47520;DHT22;33252;48.122;11.538;2022-09-09T04:12:13;15.70;99.90
47520;DHT22;33252;48.122;11.538;2022-09-09T04:14:39;15.80;99.90
47520;DHT22;33252;48.122;11.538;2022-09-09T04:17:05;15.80;99.90
47520;DHT22;33252;48.122;11.538;2022-09-09T04:19:32;15.70;99.90
47520;DHT22;33252;48.122;11.538;2022-09-09T04:21:58;15.80;99.90
47520;DHT22;33252;48.122;11.538;2022-09-09T04:24:24;15.70;99.90
47520;DHT22;33252;48.122;11.538;2022-09-09T04:26:51;15.60;99.90
47520;DHT22;33252;48.122;11.538;2022-09-09T04:29:17;15.60;99.90
47520;DHT22;33252;48.122;11.538;2022-09-09T04:31:43;15.50;99.90
47520;DHT22;33252;48.122;11.538;2022-09-09T04:34:09;15.50;99.90
47520;DHT22;33252;48.122;11.538;2022-09-09T04:36:35;15.40;99.90
47520;DHT22;33252;48.122;11.538;2022-09-09T04:39:01;15.40;99.90
47520;DHT22;33252;48.122;11.538;2022-09-09T04:41:28;15.20;99.90
47520;DHT22;33252;48.122;11.538;2022-09-09T04:43:54;15.20;99.90
47520;DHT22;33252;48.122;11.538;2022-09-09T04:46:20;15.10;99.90
47520;DHT22;33252;48.122;11.538;2022-09-09T04:48:49;15.10;99.90
47520;DHT22;33252;48.122;11.538;2022-09-09T04:51:15;15.10;99.90
47520;DHT22;33252;48.122;11.538;2022-09-09T04:53:41;15.10;99.90
47520;DHT22;33252;48.122;11.538;2022-09-09T04:56:07;15.00;99.90
47520;DHT22;33252;48.122;11.538;2022-09-09T04:58:35;15.00;99.90
47520;DHT22;33252;48.122;11.538;2022-09-09T05:01:20;15.00;99.90
47520;DHT22;33252;48.122;11.538;2022-09-09T05:03:47;14.90;99.90
47520;DHT22;33252;48.122;11.538;2022-09-09T05:06:18;14.90;99.90
47520;DHT22;33252;48.122;11.538;2022-09-09T05:08:45;15.00;99.90
47520;DHT22;33252;48.122;11.538;2022-09-09T05:11:23;15.00;99.90
47520;DHT22;33252;48.122;11.538;2022-09-09T05:13:50;15.00;99.90
47520;DHT22;33252;48.122;11.538;2022-09-09T05:16:16;15.10;99.90
47520;DHT22;33252;48.122;11.538;2022-09-09T05:18:43;15.30;99.90
47520;DHT22;33252;48.122;11.538;2022-09-09T05:21:10;15.30;99.90
47520;DHT22;33252;48.122;11.538;2022-09-09T05:23:36;15.30;99.90
47520;DHT22;33252;48.122;11.538;2022-09-09T05:26:03;15.30;99.90
47520;DHT22;33252;48.122;11.538;2022-09-09T05:28:29;15.20;99.90
47520;DHT22;33252;48.122;11.538;2022-09-09T05:30:59;15.20;99.90
47520;DHT22;33252;48.122;11.538;2022-09-09T05:33:26;15.30;99.90
47520;DHT22;33252;48.122;11.538;2022-09-09T05:35:59;15.30;99.90
47520;DHT22;33252;48.122;11.538;2022-09-09T05:38:27;15.40;99.90
47520;DHT22;33252;48.122;11.538;2022-09-09T05:40:53;15.50;99.90
47520;DHT22;33252;48.122;11.538;2022-09-09T05:43:19;15.50;99.90
47520;DHT22;33252;48.122;11.538;2022-09-09T05:45:57;15.50;99.90
47520;DHT22;33252;48.122;11.538;2022-09-09T05:48:23;15.40;99.90
47520;DHT22;33252;48.122;11.538;2022-09-09T05:50:53;15.40;99.90
47520;DHT22;33252;48.122;11.538;2022-09-09T05:53:20;15.40;99.90
47520;DHT22;33252;48.122;11.538;2022-09-09T05:55:45;15.50;99.90
47520;DHT22;33252;48.122;11.538;2022-09-09T05:58:11;15.50;99.90
47520;DHT22;33252;48.122;11.538;2022-09-09T06:00:37;15.60;99.90
47520;DHT22;33252;48.122;11.538;2022-09-09T06:03:03;15.70;99.90
47520;DHT22;33252;48.122;11.538;2022-09-09T06:05:29;15.80;99.90
47520;DHT22;33252;48.122;11.538;2022-09-09T06:07:55;16.00;99.90
47520;DHT22;33252;48.122;11.538;2022-09-09T06:10:22;16.00;99.90
47520;DHT22;33252;48.122;11.538;2022-09-09T06:12:47;16.10;99.90
47520;DHT22;33252;48.122;11.538;2022-09-09T06:15:13;16.10;99.90
47520;DHT22;33252;48.122;11.538;2022-09-09T06:17:39;16.20;99.90
47520;DHT22;33252;48.122;11.538;2022-09-09T06:20:05;16.20;99.90
47520;DHT22;33252;48.122;11.538;2022-09-09T06:22:31;16.30;99.90
47520;DHT22;33252;48.122;11.538;2022-09-09T06:24:56;16.30;99.90
47520;DHT22;33252;48.122;11.538;2022-09-09T06:27:22;16.30;99.90
47520;DHT22;33252;48.122;11.538;2022-09-09T06:29:47;16.20;99.90
47520;DHT22;33252;48.122;11.538;2022-09-09T06:32:13;16.30;99.90
47520;DHT22;33252;48.122;11.538;2022-09-09T06:34:39;16.30;99.90
47520;DHT22;33252;48.122;11.538;2022-09-09T06:37:05;16.30;99.90
47520;DHT22;33252;48.122;11.538;2022-09-09T06:39:32;16.30;99.90
47520;DHT22;33252;48.122;11.538;2022-09-09T06:41:57;16.30;99.90
47520;DHT22;33252;48.122;11.538;2022-09-09T06:44:24;16.40;99.90
47520;DHT22;33252;48.122;11.538;2022-09-09T06:46:52;16.40;99.90
47520;DHT22;33252;48.122;11.538;2022-09-09T06:49:17;16.40;99.90
47520;DHT22;33252;48.122;11.538;2022-09-09T06:51:44;16.50;99.90
47520;DHT22;33252;48.122;11.538;2022-09-09T06:54:11;16.50;99.90
47520;DHT22;33252;48.122;11.538;2022-09-09T06:56:41;16.60;99.90
47520;DHT22;33252;48.122;11.538;2022-09-09T06:59:09;16.60;99.90
47520;DHT22;33252;48.122;11.538;2022-09-09T07:01:36;16.60;99.90
47520;DHT22;33252;48.122;11.538;2022-09-09T07:04:04;16.60;99.90
47520;DHT22;33252;48.122;11.538;2022-09-09T07:06:34;16.50;99.90
47520;DHT22;33252;48.122;11.538;2022-09-09T07:09:03;16.50;99.90
47520;DHT22;33252;48.122;11.538;2022-09-09T07:11:31;16.50;99.90
47520;DHT22;33252;48.122;11.538;2022-09-09T07:13:59;16.60;99.90
47520;DHT22;33252;48.122;11.538;2022-09-09T07:16:26;16.60;99.90
47520;DHT22;33252;48.122;11.538;2022-09-09T07:18:53;16.50;99.90
47520;DHT22;33252;48.122;11.538;2022-09-09T07:21:24;16.60;99.90
47520;DHT22;33252;48.122;11.538;2022-09-09T07:23:52;16.50;99.90
47520;DHT22;33252;48.122;11.538;2022-09-09T07:26:20;16.30;99.90
47520;DHT22;33252;48.122;11.538;2022-09-09T07:28:46;16.40;99.90
47520;DHT22;33252;48.122;11.538;2022-09-09T07:31:24;16.40;99.90
47520;DHT22;33252;48.122;11.538;2022-09-09T07:33:50;16.60;99.90
47520;DHT22;33252;48.122;11.538;2022-09-09T07:36:20;16.60;99.90
47520;DHT22;33252;48.122;11.538;2022-09-09T07:38:50;16.70;99.90
47520;DHT22;33252;48.122;11.538;2022-09-09T07:43:49;16.90;99.90
47520;DHT22;33252;48.122;11.538;2022-09-09T07:46:16;17.00;99.90
47520;DHT22;33252;48.122;11.538;2022-09-09T07:48:50;17.00;99.90
47520;DHT22;33252;48.122;11.538;2022-09-09T07:51:17;17.10;99.90
47520;DHT22;33252;48.122;11.538;2022-09-09T07:53:45;17.10;99.90
47520;DHT22;33252;48.122;11.538;2022-09-09T07:56:15;17.20;99.90
47520;DHT22;33252;48.122;11.538;2022-09-09T07:58:44;17.20;99.90
47520;DHT22;33252;48.122;11.538;2022-09-09T08:01:14;17.20;99.90
47520;DHT22;33252;48.122;11.538;2022-09-09T08:03:40;17.20;99.90
47520;DHT22;33252;48.122;11.538;2022-09-09T08:06:08;17.20;99.90
47520;DHT22;33252;48.122;11.538;2022-09-09T08:08:35;17.30;99.90
47520;DHT22;33252;48.122;11.538;2022-09-09T08:13:39;17.40;99.90
47520;DHT22;33252;48.122;11.538;2022-09-09T08:16:09;17.40;99.90
47520;DHT22;33252;48.122;11.538;2022-09-09T08:18:36;17.30;99.90
47520;DHT22;33252;48.122;11.538;2022-09-09T08:21:14;17.30;99.90
47520;DHT22;33252;48.122;11.538;2022-09-09T08:23:44;17.50;99.90
47520;DHT22;33252;48.122;11.538;2022-09-09T08:26:15;17.50;99.90
47520;DHT22;33252;48.122;11.538;2022-09-09T08:28:41;17.50;99.90
47520;DHT22;33252;48.122;11.538;2022-09-09T08:31:14;17.60;99.90
47520;DHT22;33252;48.122;11.538;2022-09-09T08:33:40;17.70;99.90
47520;DHT22;33252;48.122;11.538;2022-09-09T08:36:09;17.70;99.90
47520;DHT22;33252;48.122;11.538;2022-09-09T08:38:35;17.60;99.90
47520;DHT22;33252;48.122;11.538;2022-09-09T08:54:50;17.50;99.90
47520;DHT22;33252;48.122;11.538;2022-09-09T08:57:22;17.50;99.90
47520;DHT22;33252;48.122;11.538;2022-09-09T08:59:52;17.40;99.90
47520;DHT22;33252;48.122;11.538;2022-09-09T09:09:06;17.40;99.90
47520;DHT22;33252;48.122;11.538;2022-09-09T09:11:38;17.30;99.90
47520;DHT22;33252;48.122;11.538;2022-09-09T09:14:09;17.30;99.90
47520;DHT22;33252;48.122;11.538;2022-09-09T09:16:51;17.40;99.90
47520;DHT22;33252;48.122;11.538;2022-09-09T09:19:18;17.30;99.90
47520;DHT22;33252;48.122;11.538;2022-09-09T09:27:12;17.30;99.90
47520;DHT22;33252;48.122;11.538;2022-09-09T09:29:40;17.40;99.90
47520;DHT22;33252;48.122;11.538;2022-09-09T09:32:11;17.60;99.90
47520;DHT22;33252;48.122;11.538;2022-09-09T09:34:38;17.70;99.90
47520;DHT22;33252;48.122;11.538;2022-09-09T09:37:16;17.70;99.90
47520;DHT22;33252;48.122;11.538;2022-09-09T09:39:45;17.80;99.90
47520;DHT22;33252;48.122;11.538;2022-09-09T09:42:16;17.80;99.90
47520;DHT22;33252;48.122;11.538;2022-09-09T09:44:42;17.80;99.90
47520;DHT22;33252;48.122;11.538;2022-09-09T09:47:17;17.90;99.90
47520;DHT22;33252;48.122;11.538;2022-09-09T09:49:58;17.90;99.90
47520;DHT22;33252;48.122;11.538;2022-09-09T09:52:29;17.80;99.90
47520;DHT22;33252;48.122;11.538;2022-09-09T09:54:57;17.80;99.90
47520;DHT22;33252;48.122;11.538;2022-09-09T09:57:26;17.90;99.90
47520;DHT22;33252;48.122;11.538;2022-09-09T10:00:14;17.80;99.90
47520;DHT22;33252;48.122;11.538;2022-09-09T10:02:44;17.70;99.90
47520;DHT22;33252;48.122;11.538;2022-09-09T10:19:10;17.50;99.90
47520;DHT22;33252;48.122;11.538;2022-09-09T10:32:49;17.50;99.90
47520;DHT22;33252;48.122;11.538;2022-09-09T10:35:34;17.50;99.90
47520;DHT22;33252;48.122;11.538;2022-09-09T10:57:01;17.70;99.90
47520;DHT22;33252;48.122;11.538;2022-09-09T10:59:29;17.90;99.90
47520;DHT22;33252;48.122;11.538;2022-09-09T11:02:10;18.00;99.90
47520;DHT22;33252;48.122;11.538;2022-09-09T11:04:48;18.20;99.90
47520;DHT22;33252;48.122;11.538;2022-09-09T11:07:43;18.30;99.90
47520;DHT22;33252;48.122;11.538;2022-09-09T11:11:07;18.40;99.90
47520;DHT22;33252;48.122;11.538;2022-09-09T11:13:19;18.50;99.60
47520;DHT22;33252;48.122;11.538;2022-09-09T11:16:17;18.60;99.10
47520;DHT22;33252;48.122;11.538;2022-09-09T11:18:46;18.60;98.80
47520;DHT22;33252;48.122;11.538;2022-09-09T11:21:36;18.50;98.80
47520;DHT22;33252;48.122;11.538;2022-09-09T11:24:06;18.40;99.40
47520;DHT22;33252;48.122;11.538;2022-09-09T11:26:40;18.60;99.90
47520;DHT22;33252;48.122;11.538;2022-09-09T11:29:16;18.70;99.70
47520;DHT22;33252;48.122;11.538;2022-09-09T11:31:58;19.00;99.30
47520;DHT22;33252;48.122;11.538;2022-09-09T11:37:21;19.20;98.10
47520;DHT22;33252;48.122;11.538;2022-09-09T11:40:14;19.10;99.00
47520;DHT22;33252;48.122;11.538;2022-09-09T11:42:35;19.00;98.10
47520;DHT22;33252;48.122;11.538;2022-09-09T11:47:57;18.80;97.30
47520;DHT22;33252;48.122;11.538;2022-09-09T11:52:49;18.70;97.20
47520;DHT22;33252;48.122;11.538;2022-09-09T11:55:33;18.60;97.60
47520;DHT22;33252;48.122;11.538;2022-09-09T11:58:05;18.60;97.30
47520;DHT22;33252;48.122;11.538;2022-09-09T12:00:46;18.70;97.40
47520;DHT22;33252;48.122;11.538;2022-09-09T12:03:47;18.80;97.10
47520;DHT22;33252;48.122;11.538;2022-09-09T12:06:29;18.80;96.90
47520;DHT22;33252;48.122;11.538;2022-09-09T12:11:38;18.90;96.40
47520;DHT22;33252;48.122;11.538;2022-09-09T12:14:04;18.80;97.00
47520;DHT22;33252;48.122;11.538;2022-09-09T12:16:31;18.90;96.40
47520;DHT22;33252;48.122;11.538;2022-09-09T12:19:16;19.20;96.80
47520;DHT22;33252;48.122;11.538;2022-09-09T12:21:49;19.20;96.10
47520;DHT22;33252;48.122;11.538;2022-09-09T12:24:35;19.30;95.40
47520;DHT22;33252;48.122;11.538;2022-09-09T12:27:14;19.20;95.90
47520;DHT22;33252;48.122;11.538;2022-09-09T12:30:14;19.30;96.00
47520;DHT22;33252;48.122;11.538;2022-09-09T12:32:40;19.30;96.10
47520;DHT22;33252;48.122;11.538;2022-09-09T12:35:20;19.40;95.70
47520;DHT22;33252;48.122;11.538;2022-09-09T12:37:55;19.60;95.90
47520;DHT22;33252;48.122;11.538;2022-09-09T12:40:26;19.50;95.10
47520;DHT22;33252;48.122;11.538;2022-09-09T12:42:53;19.30;95.50
47520;DHT22;33252;48.122;11.538;2022-09-09T12:45:24;19.40;95.90
47520;DHT22;33252;48.122;11.538;2022-09-09T12:50:57;19.60;96.00
47520;DHT22;33252;48.122;11.538;2022-09-09T12:53:26;19.80;95.50
47520;DHT22;33252;48.122;11.538;2022-09-09T12:55:58;19.90;95.70
47520;DHT22;33252;48.122;11.538;2022-09-09T12:58:25;19.70;95.80
47520;DHT22;33252;48.122;11.538;2022-09-09T13:00:54;19.60;95.90
47520;DHT22;33252;48.122;11.538;2022-09-09T13:03:23;19.50;96.00
47520;DHT22;33252;48.122;11.538;2022-09-09T13:05:50;19.40;96.20
47520;DHT22;33252;48.122;11.538;2022-09-09T13:08:17;19.40;96.50
47520;DHT22;33252;48.122;11.538;2022-09-09T13:11:01;19.30;96.20
47520;DHT22;33252;48.122;11.538;2022-09-09T13:13:36;19.30;96.70
47520;DHT22;33252;48.122;11.538;2022-09-09T13:16:03;19.40;96.40
47520;DHT22;33252;48.122;11.538;2022-09-09T13:18:33;19.40;96.20
47520;DHT22;33252;48.122;11.538;2022-09-09T13:21:00;19.40;96.30
47520;DHT22;33252;48.122;11.538;2022-09-09T13:23:35;19.60;96.30
47520;DHT22;33252;48.122;11.538;2022-09-09T13:26:06;19.70;95.30
47520;DHT22;33252;48.122;11.538;2022-09-09T13:28:44;19.70;95.30
47520;DHT22;33252;48.122;11.538;2022-09-09T13:31:28;19.80;95.70
47520;DHT22;33252;48.122;11.538;2022-09-09T13:33:54;19.70;95.60
47520;DHT22;33252;48.122;11.538;2022-09-09T13:36:38;21.20;93.30
47520;DHT22;33252;48.122;11.538;2022-09-09T13:39:16;20.60;94.20
47520;DHT22;33252;48.122;11.538;2022-09-09T13:41:44;20.10;94.30
47520;DHT22;33252;48.122;11.538;2022-09-09T13:44:30;20.00;94.10
47520;DHT22;33252;48.122;11.538;2022-09-09T13:47:31;19.50;94.70
47520;DHT22;33252;48.122;11.538;2022-09-09T13:49:57;19.40;95.40
47520;DHT22;33252;48.122;11.538;2022-09-09T13:52:23;19.40;95.40
47520;DHT22;33252;48.122;11.538;2022-09-09T13:54:50;19.20;95.70
47520;DHT22;33252;48.122;11.538;2022-09-09T13:57:19;19.00;95.70
47520;DHT22;33252;48.122;11.538;2022-09-09T13:59:46;19.00;96.00
47520;DHT22;33252;48.122;11.538;2022-09-09T14:02:12;19.00;96.10
47520;DHT22;33252;48.122;11.538;2022-09-09T14:04:38;18.90;96.30
47520;DHT22;33252;48.122;11.538;2022-09-09T14:07:12;18.80;96.30
47520;DHT22;33252;48.122;11.538;2022-09-09T14:09:38;18.80;96.30
47520;DHT22;33252;48.122;11.538;2022-09-09T14:12:05;18.80;95.80
47520;DHT22;33252;48.122;11.538;2022-09-09T14:14:31;18.80;96.00
47520;DHT22;33252;48.122;11.538;2022-09-09T14:16:56;19.70;95.50
47520;DHT22;33252;48.122;11.538;2022-09-09T14:19:22;20.00;93.90
47520;DHT22;33252;48.122;11.538;2022-09-09T14:21:48;19.60;94.90
47520;DHT22;33252;48.122;11.538;2022-09-09T14:24:14;19.20;95.70
47520;DHT22;33252;48.122;11.538;2022-09-09T14:26:39;19.20;95.70
47520;DHT22;33252;48.122;11.538;2022-09-09T14:29:06;19.10;95.80
47520;DHT22;33252;48.122;11.538;2022-09-09T14:31:32;19.10;95.90
47520;DHT22;33252;48.122;11.538;2022-09-09T14:33:58;18.90;95.80
47520;DHT22;33252;48.122;11.538;2022-09-09T14:36:24;18.70;96.10
47520;DHT22;33252;48.122;11.538;2022-09-09T14:38:50;18.60;96.40
47520;DHT22;33252;48.122;11.538;2022-09-09T14:41:17;18.60;96.60
47520;DHT22;33252;48.122;11.538;2022-09-09T14:43:44;18.70;96.90
47520;DHT22;33252;48.122;11.538;2022-09-09T14:46:12;18.70;96.30
47520;DHT22;33252;48.122;11.538;2022-09-09T14:48:39;18.60;96.60
47520;DHT22;33252;48.122;11.538;2022-09-09T14:53:36;18.60;96.10
47520;DHT22;33252;48.122;11.538;2022-09-09T14:56:21;18.60;96.00
47520;DHT22;33252;48.122;11.538;2022-09-09T14:58:48;18.60;96.30
47520;DHT22;33252;48.122;11.538;2022-09-09T15:01:16;18.60;96.10
47520;DHT22;33252;48.122;11.538;2022-09-09T15:03:43;18.60;96.00
47520;DHT22;33252;48.122;11.538;2022-09-09T15:06:14;18.60;96.10
47520;DHT22;33252;48.122;11.538;2022-09-09T15:08:44;18.50;96.10
47520;DHT22;33252;48.122;11.538;2022-09-09T15:11:11;18.50;95.90
47520;DHT22;33252;48.122;11.538;2022-09-09T15:13:39;18.50;95.40
47520;DHT22;33252;48.122;11.538;2022-09-09T15:16:14;18.50;95.50
47520;DHT22;33252;48.122;11.538;2022-09-09T15:18:40;18.50;95.70
47520;DHT22;33252;48.122;11.538;2022-09-09T15:21:28;18.50;95.00
47520;DHT22;33252;48.122;11.538;2022-09-09T15:23:55;18.50;95.20
47520;DHT22;33252;48.122;11.538;2022-09-09T15:26:21;18.50;95.10
47520;DHT22;33252;48.122;11.538;2022-09-09T15:28:48;18.50;95.30
47520;DHT22;33252;48.122;11.538;2022-09-09T15:31:20;18.50;95.30
47520;DHT22;33252;48.122;11.538;2022-09-09T15:33:53;18.50;95.40
47520;DHT22;33252;48.122;11.538;2022-09-09T15:36:27;18.30;95.30
47520;DHT22;33252;48.122;11.538;2022-09-09T15:38:54;18.30;95.50
47520;DHT22;33252;48.122;11.538;2022-09-09T15:41:21;18.30;95.60
47520;DHT22;33252;48.122;11.538;2022-09-09T15:43:49;18.50;95.70
47520;DHT22;33252;48.122;11.538;2022-09-09T15:46:27;19.30;94.60
47520;DHT22;33252;48.122;11.538;2022-09-09T15:48:54;21.20;92.10
47520;DHT22;33252;48.122;11.538;2022-09-09T15:51:21;21.00;91.80
47520;DHT22;33252;48.122;11.538;2022-09-09T15:53:47;21.20;91.60
47520;DHT22;33252;48.122;11.538;2022-09-09T15:56:13;20.30;92.20
47520;DHT22;33252;48.122;11.538;2022-09-09T15:58:38;19.60;93.40
47520;DHT22;33252;48.122;11.538;2022-09-09T16:01:06;19.30;94.20
47520;DHT22;33252;48.122;11.538;2022-09-09T16:03:39;19.00;94.10
47520;DHT22;33252;48.122;11.538;2022-09-09T16:06:09;18.90;94.30
47520;DHT22;33252;48.122;11.538;2022-09-09T16:08:36;18.70;94.10
47520;DHT22;33252;48.122;11.538;2022-09-09T16:11:14;18.70;94.50
47520;DHT22;33252;48.122;11.538;2022-09-09T16:13:42;18.60;94.50
47520;DHT22;33252;48.122;11.538;2022-09-09T16:16:10;18.60;94.40
47520;DHT22;33252;48.122;11.538;2022-09-09T16:18:40;18.70;94.20
47520;DHT22;33252;48.122;11.538;2022-09-09T16:21:07;18.80;94.00
47520;DHT22;33252;48.122;11.538;2022-09-09T16:23:34;18.90;93.90
47520;DHT22;33252;48.122;11.538;2022-09-09T16:26:01;18.90;93.80
47520;DHT22;33252;48.122;11.538;2022-09-09T16:28:27;18.80;93.70
47520;DHT22;33252;48.122;11.538;2022-09-09T16:30:53;18.80;94.00
47520;DHT22;33252;48.122;11.538;2022-09-09T16:33:19;18.60;94.00
47520;DHT22;33252;48.122;11.538;2022-09-09T16:35:45;18.60;94.00
47520;DHT22;33252;48.122;11.538;2022-09-09T16:38:11;18.50;94.10
47520;DHT22;33252;48.122;11.538;2022-09-09T16:40:37;18.40;94.20
47520;DHT22;33252;48.122;11.538;2022-09-09T16:43:06;18.40;93.60
47520;DHT22;33252;48.122;11.538;2022-09-09T16:45:32;18.30;94.00
47520;DHT22;33252;48.122;11.538;2022-09-09T16:47:59;18.30;94.20
47520;DHT22;33252;48.122;11.538;2022-09-09T16:50:26;18.20;93.90
47520;DHT22;33252;48.122;11.538;2022-09-09T16:52:52;18.10;94.10
47520;DHT22;33252;48.122;11.538;2022-09-09T16:55:18;18.10;94.40
47520;DHT22;33252;48.122;11.538;2022-09-09T16:57:46;18.10;94.20
47520;DHT22;33252;48.122;11.538;2022-09-09T17:00:15;18.00;94.30
47520;DHT22;33252;48.122;11.538;2022-09-09T17:02:42;18.00;94.50
47520;DHT22;33252;48.122;11.538;2022-09-09T17:05:08;17.90;94.70
47520;DHT22;33252;48.122;11.538;2022-09-09T17:07:34;17.90;94.90
47520;DHT22;33252;48.122;11.538;2022-09-09T17:10:01;17.90;95.10
47520;DHT22;33252;48.122;11.538;2022-09-09T17:12:27;17.80;95.60
47520;DHT22;33252;48.122;11.538;2022-09-09T17:14:53;17.80;95.50
47520;DHT22;33252;48.122;11.538;2022-09-09T17:17:20;17.70;95.50
47520;DHT22;33252;48.122;11.538;2022-09-09T17:19:46;17.70;95.90
47520;DHT22;33252;48.122;11.538;2022-09-09T17:22:12;17.70;96.10
47520;DHT22;33252;48.122;11.538;2022-09-09T17:24:38;17.60;96.30
47520;DHT22;33252;48.122;11.538;2022-09-09T17:27:04;17.60;96.70
47520;DHT22;33252;48.122;11.538;2022-09-09T17:29:29;17.50;96.90
47520;DHT22;33252;48.122;11.538;2022-09-09T17:31:55;17.50;97.20
47520;DHT22;33252;48.122;11.538;2022-09-09T17:34:21;17.40;97.10
47520;DHT22;33252;48.122;11.538;2022-09-09T17:36:48;17.40;97.20
47520;DHT22;33252;48.122;11.538;2022-09-09T17:39:14;17.30;97.70
47520;DHT22;33252;48.122;11.538;2022-09-09T17:41:40;17.30;97.40